Honaker, Virginia
Current Conditions -  °F | °C
As of 11:35 AM on Wednesday 26 Nov 2014 (Local Time) from KJFZ Reporting Station
Moderate Fog Moderate Fog  
Wind Chill: 36°   Ceiling: 400
Heat Index: 36°   Visibility: 0mi
Dew Point: 35°   Wind: 0mph
Humidity: 94%   Direction: NA
Pressure: 29.99"   Gusts: NA
Location:  37.02°N, 81.97°W
Report Text: KJFZ 261635Z AUTO 00000KT M1/4SM FG OVC004 02/01 A2999 RMK AO2 T00220014
Loading
Personal Weather Stations






























Interactive Weather Map New forecast layout! Learn more

10-Day Weather Forecast

Advertisements
Track Severe Weather on mobile